Time;durP1;ratioP1;P1;durP2;ratioP2;P2;SDS_P1;SDS_P2;PMS_P1;PMS_P2;Temp;Humidity;BMP_temperature;BMP_pressure;BME280_temperature;BME280_humidity;BME280_pressure;Samples;Min_cycle;Max_cycle;Signal;HPM_P1;HPM_P2
2022/03/24 00:00:09;;;;;;;99.58;51.98;;;;;;;3.00;62.70;99848.81;1680647;85;21532;-74
2022/03/24 00:02:40;;;;;;;105.37;53.95;;;;;;;3.00;62.77;99848.25;1677220;85;21029;-71
2022/03/24 00:05:11;;;;;;;99.52;52.10;;;;;;;2.95;62.94;99840.61;1682228;85;21894;-74
2022/03/24 00:07:37;;;;;;;110.88;55.23;;;;;;;2.94;63.08;99836.23;1675633;84;21476;-73
2022/03/24 00:10:06;;;;;;;97.75;50.88;;;;;;;2.90;63.08;99832.67;1663904;85;21073;-71
2022/03/24 00:12:36;;;;;;;100.75;52.85;;;;;;;2.89;63.07;99821.52;1643211;87;21041;-73
2022/03/24 00:15:22;;;;;;;105.40;51.80;;;;;;;2.89;63.15;99822.88;1662799;85;20934;-72
2022/03/24 00:17:49;;;;;;;109.25;50.88;;;;;;;2.90;63.23;99819.63;1657547;85;21089;-69
2022/03/24 00:20:16;;;;;;;107.20;52.10;;;;;;;2.91;63.15;99814.44;1652952;85;20968;-70
2022/03/24 00:22:47;;;;;;;94.32;52.25;;;;;;;2.91;63.10;99812.55;1666129;85;21004;-69
2022/03/24 00:25:13;;;;;;;95.57;52.30;;;;;;;2.88;63.14;99803.52;1664428;85;21081;-71
2022/03/24 00:27:44;;;;;;;98.92;52.10;;;;;;;2.89;63.16;99794.82;1663070;84;21694;-71
2022/03/24 00:30:12;;;;;;;101.78;51.53;;;;;;;2.89;63.20;99797.02;1618593;87;21141;-70
2022/03/24 00:32:41;;;;;;;100.95;53.08;;;;;;;2.89;63.18;99794.82;1648312;86;20965;-71
2022/03/24 00:35:11;;;;;;;99.28;52.38;;;;;;;2.88;63.13;99786.39;1662505;85;21337;-69
2022/03/24 00:37:38;;;;;;;98.65;51.20;;;;;;;2.85;63.08;99779.55;1657956;85;21610;-68
2022/03/24 00:40:07;;;;;;;93.95;52.45;;;;;;;2.85;62.99;99775.47;1622941;87;21080;-69
2022/03/24 00:42:36;;;;;;;101.58;53.23;;;;;;;2.85;62.94;99772.75;1619566;87;21808;-68
2022/03/24 00:45:06;;;;;;;98.07;49.90;;;;;;;2.84;62.94;99761.59;1625221;87;21052;-68
2022/03/24 00:47:35;;;;;;;100.72;50.52;;;;;;;2.84;62.97;99760.76;1614766;87;21124;-69
2022/03/24 00:50:05;;;;;;;98.70;50.80;;;;;;;2.82;63.01;99755.58;1596655;88;20966;-69
2022/03/24 00:52:40;;;;;;;92.00;50.67;;;;;;;2.80;62.91;99750.41;1664141;85;21068;-71
2022/03/24 00:55:05;;;;;;;92.33;50.00;;;;;;;2.78;62.88;99745.75;1673701;84;21714;-69
2022/03/24 00:57:33;;;;;;;99.25;51.50;;;;;;;2.75;62.93;99746.28;1680941;84;21022;-70
2022/03/24 01:00:03;;;;;;;99.22;49.48;;;;;;;2.73;62.88;99743.00;1642753;85;21119;-70
2022/03/24 01:02:30;;;;;;;95.05;51.75;;;;;;;2.71;62.94;99740.27;1667370;85;20947;-68
2022/03/24 01:05:01;;;;;;;88.92;49.20;;;;;;;2.69;63.02;99736.45;1670833;84;21003;-71
2022/03/24 01:07:28;;;;;;;92.88;49.65;;;;;;;2.66;63.03;99734.27;1673218;85;21226;-71
2022/03/24 01:09:57;;;;;;;93.90;51.88;;;;;;;2.65;63.07;99729.88;1678360;85;21087;-71
2022/03/24 01:12:23;;;;;;;95.62;51.02;;;;;;;2.62;62.99;99724.44;1646036;84;21035;-71
2022/03/24 01:14:50;;;;;;;92.85;50.45;;;;;;;2.59;62.88;99729.05;1649023;85;21007;-69
2022/03/24 01:17:18;;;;;;;102.95;50.17;;;;;;;2.55;62.77;99723.84;1647179;86;21051;-71
2022/03/24 01:19:47;;;;;;;95.20;49.85;;;;;;;2.47;63.00;99720.25;1622638;87;21540;-72
2022/03/24 01:22:17;;;;;;;111.55;53.30;;;;;;;2.40;63.21;99725.38;1616929;87;20906;-68
2022/03/24 01:24:47;;;;;;;90.55;48.70;;;;;;;2.36;63.55;99709.81;1623480;87;20997;-71
2022/03/24 01:27:17;;;;;;;96.00;50.98;;;;;;;2.31;63.60;99711.44;1618971;87;20985;-71
2022/03/24 01:29:44;;;;;;;92.02;51.15;;;;;;;2.27;63.72;99710.86;1622312;87;21052;-70
2022/03/24 01:32:12;;;;;;;104.85;54.77;;;;;;;2.26;63.91;99708.67;1603595;88;22246;-71
2022/03/24 01:34:39;;;;;;;110.97;53.70;;;;;;;2.26;63.93;99701.05;1615626;87;21192;-71
2022/03/24 01:37:06;;;;;;;106.63;54.95;;;;;;;2.25;63.95;99698.05;1616790;87;21110;-73
2022/03/24 01:39:34;;;;;;;101.40;53.58;;;;;;;2.25;64.08;99689.34;1620424;87;21087;-68
2022/03/24 01:42:05;;;;;;;106.92;52.27;;;;;;;2.27;64.00;99687.19;1612340;88;21584;-71
2022/03/24 01:44:32;;;;;;;101.15;52.45;;;;;;;2.27;63.86;99684.47;1601848;88;21126;-71
2022/03/24 01:47:06;;;;;;;97.17;53.52;;;;;;;2.28;63.71;99682.58;1657495;85;21021;-71
2022/03/24 01:49:37;;;;;;;96.17;51.97;;;;;;;2.26;63.69;99686.92;1646359;86;21592;-70
2022/03/24 01:52:09;;;;;;;103.22;54.50;;;;;;;2.24;63.61;99682.80;1636368;85;21028;-69
2022/03/24 01:54:40;;;;;;;98.52;53.25;;;;;;;2.22;63.75;99683.06;1692705;84;21048;-70
2022/03/24 01:57:08;;;;;;;106.17;54.10;;;;;;;2.21;63.78;99677.89;1684761;84;21131;-70
2022/03/24 01:59:38;;;;;;;103.05;55.25;;;;;;;2.19;63.90;99674.91;1687715;84;21099;-72
2022/03/24 02:02:10;;;;;;;107.07;54.80;;;;;;;2.18;63.88;99665.64;1648581;86;21012;-71
2022/03/24 02:04:37;;;;;;;96.92;54.60;;;;;;;2.16;63.90;99669.16;1691457;84;21043;-70
2022/03/24 02:07:05;;;;;;;104.27;52.75;;;;;;;2.15;63.91;99664.81;1687738;84;21130;-69
2022/03/24 02:09:35;;;;;;;112.15;55.17;;;;;;;2.10;63.88;99657.41;1679487;85;21044;-70
2022/03/24 02:12:11;;;;;;;108.32;56.18;;;;;;;2.08;63.89;99656.88;1687579;84;21047;-71
2022/03/24 02:14:40;;;;;;;111.47;53.90;;;;;;;2.04;64.04;99655.75;1686451;84;20914;-70
2022/03/24 02:17:10;;;;;;;101.40;53.85;;;;;;;2.00;64.17;99653.25;1685738;83;21131;-72
2022/03/24 02:19:38;;;;;;;109.07;55.52;;;;;;;1.98;64.20;99647.28;1680708;84;20941;-71
2022/03/24 02:22:12;;;;;;;102.35;51.63;;;;;;;1.98;64.17;99647.28;1687314;84;21718;-69
2022/03/24 02:24:41;;;;;;;110.57;52.95;;;;;;;1.96;64.10;99644.83;1682583;84;21489;-70
2022/03/24 02:27:08;;;;;;;109.70;55.20;;;;;;;1.96;64.12;99644.83;1694413;84;21526;-71
2022/03/24 02:29:36;;;;;;;94.17;51.60;;;;;;;1.96;64.24;99641.27;1687308;84;20988;-71
2022/03/24 02:32:11;;;;;;;106.43;51.90;;;;;;;1.95;64.19;99641.80;1690099;84;21063;-71
2022/03/24 02:34:54;;;;;;;98.17;51.90;;;;;;;1.94;64.16;99640.98;1684787;84;20936;-68
2022/03/24 02:37:25;;;;;;;111.85;53.60;;;;;;;1.93;64.10;99641.23;1673071;84;21493;-71
2022/03/24 02:39:57;;;;;;;105.70;54.13;;;;;;;1.91;64.09;99645.58;1682366;84;21099;-69
2022/03/24 02:42:26;;;;;;;103.32;51.65;;;;;;;1.89;64.25;99639.61;1687632;84;20989;-69
2022/03/24 02:44:56;;;;;;;99.42;52.00;;;;;;;1.87;64.37;99633.60;1695642;83;20995;-71
2022/03/24 02:47:23;;;;;;;101.53;54.27;;;;;;;1.84;64.38;99636.02;1683168;84;21827;-71
2022/03/24 02:49:54;;;;;;;100.92;53.65;;;;;;;1.80;64.46;99637.89;1689130;83;20964;-70
2022/03/24 02:52:21;;;;;;;111.12;53.92;;;;;;;1.77;64.52;99633.52;1692463;84;21006;-70
2022/03/24 02:54:49;;;;;;;99.07;50.55;;;;;;;1.77;64.67;99632.16;1691184;84;21339;-70
2022/03/24 02:57:16;;;;;;;106.83;55.25;;;;;;;1.75;64.75;99624.79;1626940;86;21151;-70
2022/03/24 02:59:42;;;;;;;108.65;52.98;;;;;;;1.75;64.81;99631.58;1689084;83;21104;-71
2022/03/24 03:02:13;;;;;;;107.03;53.98;;;;;;;1.74;64.76;99632.67;1688032;84;21024;-69
2022/03/24 03:04:43;;;;;;;110.65;55.38;;;;;;;1.74;64.70;99634.03;1693169;84;21015;-69
2022/03/24 03:07:11;;;;;;;107.35;54.60;;;;;;;1.72;64.78;99624.78;1662995;84;20989;-71
2022/03/24 03:09:40;;;;;;;102.67;53.87;;;;;;;1.70;64.81;99626.41;1692982;84;21042;-70
2022/03/24 03:12:09;;;;;;;110.78;52.75;;;;;;;1.68;64.87;99616.33;1696332;84;21139;-71
2022/03/24 03:14:41;;;;;;;108.67;52.88;;;;;;;1.68;64.87;99616.86;1694238;84;21141;-70
2022/03/24 03:17:09;;;;;;;101.50;51.48;;;;;;;1.68;64.93;99619.04;1694173;84;20988;-72
2022/03/24 03:19:39;;;;;;;102.35;52.25;;;;;;;1.66;65.10;99606.25;1681175;84;21516;-68
2022/03/24 03:22:06;;;;;;;96.95;49.35;;;;;;;1.66;65.27;99611.68;1676912;84;21040;-69
2022/03/24 03:24:33;;;;;;;99.13;49.55;;;;;;;1.67;65.40;99606.52;1685715;83;21265;-69
2022/03/24 03:27:04;;;;;;;100.67;48.75;;;;;;;1.68;65.62;99603.27;1694196;83;21101;-68
2022/03/24 03:29:32;;;;;;;97.75;48.78;;;;;;;1.67;65.82;99603.80;1683970;84;20962;-71
2022/03/24 03:32:00;;;;;;;100.35;47.27;;;;;;;1.69;65.93;99602.18;1641016;86;20973;-70
2022/03/24 03:34:31;;;;;;;99.05;48.05;;;;;;;1.73;65.94;99597.05;1663663;84;20893;-71
2022/03/24 03:36:59;;;;;;;93.65;44.70;;;;;;;1.77;65.91;99599.55;1641660;86;21913;-70
2022/03/24 03:39:26;;;;;;;95.62;44.40;;;;;;;1.83;65.76;99597.14;1640229;86;21224;-71
2022/03/24 03:41:54;;;;;;;89.45;43.73;;;;;;;1.89;65.65;99600.73;1640706;86;21055;-69
2022/03/24 03:44:21;;;;;;;91.17;43.78;;;;;;;1.93;65.77;99596.39;1643795;86;21069;-70
2022/03/24 03:46:50;;;;;;;90.40;42.17;;;;;;;1.95;65.61;99594.23;1648219;86;20999;-68
2022/03/24 03:49:18;;;;;;;90.15;42.73;;;;;;;1.94;65.41;99585.81;1700423;83;21250;-70
2022/03/24 03:51:47;;;;;;;97.50;42.98;;;;;;;1.94;65.50;99592.61;1712366;83;20919;-69
2022/03/24 03:54:15;;;;;;;86.20;38.30;;;;;;;1.92;65.46;99592.05;1706461;83;21495;-70
2022/03/24 03:56:42;;;;;;;74.65;33.20;;;;;;;1.89;65.40;99599.37;1714440;83;21010;-71
2022/03/24 03:59:12;;;;;;;74.85;33.95;;;;;;;1.84;65.40;99604.23;1712391;83;20953;-68
2022/03/24 04:01:41;;;;;;;72.03;33.25;;;;;;;1.82;65.40;99602.30;1694463;84;21191;-71
2022/03/24 04:04:12;;;;;;;60.12;28.07;;;;;;;1.81;65.46;99599.29;1694624;83;21068;-70
2022/03/24 04:06:58;;;;;;;60.90;28.02;;;;;;;1.81;65.54;99598.76;1692901;83;21850;-69
2022/03/24 04:09:28;;;;;;;48.42;24.92;;;;;;;1.83;65.71;99601.22;1687783;84;21021;-72
2022/03/24 04:11:56;;;;;;;62.25;26.80;;;;;;;1.88;65.89;99599.07;1687465;84;21540;-72
2022/03/24 04:14:25;;;;;;;55.15;25.25;;;;;;;1.93;65.94;99591.78;1692450;84;21259;-70
2022/03/24 04:16:59;;;;;;;58.05;25.15;;;;;;;1.98;65.81;99596.99;1694776;84;21040;-70
2022/03/24 04:19:24;;;;;;;52.48;24.95;;;;;;;1.98;65.80;99593.72;1686184;84;21063;-70
2022/03/24 04:21:52;;;;;;;54.40;28.15;;;;;;;2.01;65.78;99588.31;1645379;86;20972;-71
2022/03/24 04:24:19;;;;;;;53.73;27.75;;;;;;;2.03;65.69;99587.52;1654185;86;21047;-68
2022/03/24 04:26:46;;;;;;;55.98;27.05;;;;;;;2.06;65.83;99597.30;1661645;85;21141;-70
2022/03/24 04:29:13;;;;;;;52.13;25.40;;;;;;;2.09;65.88;99596.51;1653887;86;20905;-69
2022/03/24 04:31:40;;;;;;;56.85;27.17;;;;;;;2.13;65.98;99598.44;1662433;85;21504;-68
2022/03/24 04:34:08;;;;;;;56.15;25.85;;;;;;;2.14;66.05;99604.17;1690181;84;21465;-71
2022/03/24 04:36:49;;;;;;;58.58;27.65;;;;;;;2.16;66.00;99605.27;1687904;84;20937;-69
2022/03/24 04:39:19;;;;;;;60.05;29.67;;;;;;;2.19;65.93;99602.84;1688083;83;21097;-70
2022/03/24 04:41:45;;;;;;;66.72;33.90;;;;;;;2.22;66.01;99608.28;1710467;83;20954;-71
2022/03/24 04:44:13;;;;;;;78.92;37.67;;;;;;;2.29;65.80;99609.41;1714337;83;20961;-71
2022/03/24 04:46:40;;;;;;;84.60;41.53;;;;;;;2.40;65.45;99611.14;1711581;83;21049;-70
2022/03/24 04:49:09;;;;;;;81.12;41.55;;;;;;;2.56;65.02;99603.03;1704165;83;20968;-72
2022/03/24 04:51:37;;;;;;;90.60;46.00;;;;;;;2.69;64.63;99608.56;1710354;83;21025;-72
2022/03/24 04:54:06;;;;;;;93.72;47.60;;;;;;;2.82;64.15;99605.05;1711408;83;21048;-71
2022/03/24 04:56:35;;;;;;;92.88;46.48;;;;;;;2.96;63.67;99610.83;1694872;83;21656;-72
2022/03/24 04:59:03;;;;;;;102.27;53.33;;;;;;;3.08;63.21;99618.23;1700608;83;21619;-70
2022/03/24 05:01:32;;;;;;;107.37;55.15;;;;;;;3.19;62.67;99615.55;1692706;84;21037;-71
2022/03/24 05:04:04;;;;;;;127.20;59.15;;;;;;;3.29;62.25;99619.66;1693210;83;21238;-70
2022/03/24 05:06:32;;;;;;;104.87;57.13;;;;;;;3.38;61.94;99617.20;1648523;86;21449;-69
2022/03/24 05:09:00;;;;;;;118.55;56.10;;;;;;;3.44;61.75;99620.23;1687877;84;20970;-72
2022/03/24 05:11:28;;;;;;;113.62;56.95;;;;;;;3.50;61.33;99622.40;1689431;84;20992;-68
2022/03/24 05:13:56;;;;;;;113.65;58.35;;;;;;;3.57;61.17;99620.77;1682449;84;21145;-71
2022/03/24 05:16:25;;;;;;;124.20;64.65;;;;;;;3.64;60.84;99626.78;1693207;84;21581;-71
2022/03/24 05:18:54;;;;;;;136.40;63.60;;;;;;;3.69;60.68;99620.52;1687116;84;21073;-70
2022/03/24 05:21:24;;;;;;;128.30;64.35;;;;;;;3.74;60.47;99624.08;1693110;84;21108;-70
2022/03/24 05:23:53;;;;;;;131.10;63.58;;;;;;;3.82;60.37;99628.16;1670051;84;21506;-71
2022/03/24 05:26:24;;;;;;;129.27;61.40;;;;;;;3.88;60.06;99628.45;1675874;84;21084;-71
2022/03/24 05:28:54;;;;;;;121.35;58.87;;;;;;;3.95;60.10;99628.17;1658509;85;20963;-73
2022/03/24 05:31:24;;;;;;;116.25;56.30;;;;;;;4.01;59.62;99624.88;1702868;83;21047;-69
2022/03/24 05:33:51;;;;;;;115.92;55.92;;;;;;;4.10;59.42;99629.24;1704953;83;20898;-69
2022/03/24 05:36:20;;;;;;;107.37;53.48;;;;;;;4.20;59.58;99625.68;1711775;83;20933;-72
2022/03/24 05:38:49;;;;;;;108.50;53.55;;;;;;;4.25;59.53;99632.50;1713145;83;21057;-71
2022/03/24 05:41:16;;;;;;;104.67;52.40;;;;;;;4.32;59.13;99631.67;1705421;83;21239;-72
2022/03/24 05:44:02;;;;;;;99.62;49.95;;;;;;;4.36;58.77;99636.86;1712078;82;20893;-72
2022/03/24 05:46:20;;;;;;;105.80;49.35;;;;;;;4.44;58.54;99634.65;1708709;83;21058;-70
2022/03/24 05:48:49;;;;;;;97.05;47.05;;;;;;;4.50;58.41;99640.38;1716481;83;20928;-70
2022/03/24 05:51:27;;;;;;;87.08;39.92;;;;;;;4.55;57.69;99640.38;1649237;83;21031;-73
2022/03/24 05:54:16;;;;;;;96.30;44.05;;;;;;;4.61;57.85;99632.97;1680757;83;21999;-72
2022/03/24 05:56:45;;;;;;;106.75;45.30;;;;;;;4.65;57.29;99637.33;1699139;83;21003;-72
2022/03/24 05:59:16;;;;;;;102.07;41.88;;;;;;;4.70;57.50;99640.05;1696813;83;21437;-72
2022/03/24 06:01:46;;;;;;;84.15;42.38;;;;;;;4.72;57.25;99637.87;1714530;83;21177;-73
2022/03/24 06:04:13;;;;;;;87.42;41.53;;;;;;;4.74;57.07;99642.51;1711265;83;21123;-71
2022/03/24 06:06:42;;;;;;;83.62;41.10;;;;;;;4.74;57.00;99632.39;1713035;83;20957;-70
2022/03/24 06:09:13;;;;;;;86.35;40.05;;;;;;;4.79;57.05;99642.49;1710820;83;21108;-72
2022/03/24 06:11:39;;;;;;;86.17;39.30;;;;;;;4.84;56.94;99630.19;1698445;83;20956;-70
2022/03/24 06:14:16;;;;;;;82.53;40.08;;;;;;;4.92;57.24;99632.88;1704853;83;21656;-71
2022/03/24 06:16:43;;;;;;;67.42;33.30;;;;;;;4.92;56.15;99632.88;1702888;83;21496;-68
2022/03/24 06:19:14;;;;;;;76.55;39.25;;;;;;;4.95;56.34;99643.78;1684086;83;21445;-71
2022/03/24 06:21:46;;;;;;;81.42;37.63;;;;;;;4.99;56.64;99637.50;1698003;83;20956;-71
2022/03/24 06:24:13;;;;;;;64.22;34.95;;;;;;;5.07;56.49;99634.72;1700254;83;21003;-72
2022/03/24 06:26:40;;;;;;;66.97;34.88;;;;;;;5.14;56.29;99647.25;1701475;83;20984;-70
2022/03/24 06:29:13;;;;;;;77.27;34.50;;;;;;;5.18;56.27;99633.31;1679452;84;20924;-73
2022/03/24 06:31:43;;;;;;;71.87;34.38;;;;;;;5.20;55.91;99641.48;1646044;86;22075;-72
2022/03/24 06:34:10;;;;;;;62.43;31.17;;;;;;;5.23;56.06;99631.38;1648921;86;21088;-73
2022/03/24 06:36:40;;;;;;;70.32;33.08;;;;;;;5.30;56.21;99634.34;1710613;83;21604;-71
2022/03/24 06:39:07;;;;;;;67.53;34.53;;;;;;;5.38;55.87;99649.31;1703551;83;21071;-72
2022/03/24 06:41:37;;;;;;;65.97;33.73;;;;;;;5.42;55.28;99644.39;1701389;83;20942;-72
2022/03/24 06:44:06;;;;;;;69.22;34.08;;;;;;;5.44;55.42;99640.01;1712557;83;21140;-70
2022/03/24 06:46:50;;;;;;;55.98;30.50;;;;;;;5.48;55.16;99635.05;1701223;83;21154;-70
2022/03/24 06:49:17;;;;;;;59.80;29.15;;;;;;;5.54;55.51;99635.84;1705210;83;21495;-69
2022/03/24 06:51:45;;;;;;;62.50;29.92;;;;;;;5.62;55.43;99635.78;1707324;83;20988;-72
2022/03/24 06:54:14;;;;;;;61.55;30.10;;;;;;;5.68;55.48;99634.64;1714270;83;21616;-70
2022/03/24 06:56:44;;;;;;;57.40;32.13;;;;;;;5.76;54.54;99636.50;1714686;83;21865;-71
2022/03/24 06:59:11;;;;;;;59.30;30.90;;;;;;;5.74;54.52;99638.16;1707648;83;21116;-72
2022/03/24 07:01:42;;;;;;;62.17;30.85;;;;;;;5.75;54.60;99635.69;1705633;83;20941;-71
2022/03/24 07:04:09;;;;;;;55.35;27.07;;;;;;;5.82;54.49;99640.83;1714788;83;20957;-70
2022/03/24 07:06:38;;;;;;;52.85;27.00;;;;;;;5.85;53.95;99646.55;1706299;83;21012;-70
2022/03/24 07:09:04;;;;;;;51.95;28.42;;;;;;;5.91;54.31;99639.67;1683575;83;21095;-71
2022/03/24 07:11:33;;;;;;;50.73;25.27;;;;;;;6.01;54.06;99639.59;1704135;83;20957;-72
2022/03/24 07:13:59;;;;;;;46.02;25.62;;;;;;;6.12;53.44;99639.00;1706636;83;21013;-71
2022/03/24 07:16:29;;;;;;;60.05;25.50;;;;;;;6.16;52.91;99644.72;1695174;83;21027;-71
2022/03/24 07:18:56;;;;;;;49.85;25.35;;;;;;;6.17;52.81;99643.06;1679985;84;20896;-71
2022/03/24 07:21:27;;;;;;;54.20;27.42;;;;;;;6.22;52.81;99636.71;1687057;84;21553;-68
2022/03/24 07:23:57;;;;;;;56.90;28.05;;;;;;;6.28;52.55;99635.55;1685373;83;21055;-71
2022/03/24 07:26:26;;;;;;;54.23;27.50;;;;;;;6.31;52.38;99637.70;1679399;84;20980;-71
2022/03/24 07:28:53;;;;;;;73.35;34.58;;;;;;;6.33;52.12;99642.34;1689224;84;21025;-71
2022/03/24 07:31:23;;;;;;;84.47;44.55;;;;;;;6.35;51.95;99637.16;1689613;83;21014;-69
2022/03/24 07:33:50;;;;;;;80.65;41.77;;;;;;;6.29;52.25;99648.15;1677537;85;22171;-69
2022/03/24 07:36:22;;;;;;;102.65;49.95;;;;;;;6.25;52.56;99644.34;1690709;84;21012;-68
2022/03/24 07:38:51;;;;;;;112.47;52.55;;;;;;;6.23;52.56;99641.64;1685178;84;20989;-69
2022/03/24 07:41:18;;;;;;;130.87;67.42;;;;;;;6.19;52.84;99635.35;1652431;86;20997;-69
2022/03/24 07:43:45;;;;;;;140.97;72.85;;;;;;;6.23;52.79;99632.86;1641464;86;21063;-71
2022/03/24 07:46:13;;;;;;;127.92;66.35;;;;;;;6.27;52.58;99635.84;1688655;84;22644;-72
2022/03/24 07:48:40;;;;;;;115.57;65.57;;;;;;;6.32;52.12;99638.53;1691457;84;21533;-71
2022/03/24 07:51:08;;;;;;;123.58;58.92;;;;;;;6.39;52.64;99629.44;1684967;84;21120;-71
2022/03/24 07:53:53;;;;;;;99.60;53.55;;;;;;;6.50;52.49;99635.60;1690007;84;21569;-70
2022/03/24 07:56:24;;;;;;;95.25;50.35;;;;;;;6.57;51.18;99638.00;1676965;84;21069;-70
2022/03/24 07:58:53;;;;;;;78.85;45.23;;;;;;;6.56;51.63;99632.27;1681480;84;21068;-72
2022/03/24 08:01:29;;;;;;;93.37;46.48;;;;;;;6.65;51.50;99638.73;1686080;84;21092;-67
2022/03/24 08:03:59;;;;;;;76.30;43.60;;;;;;;6.71;51.09;99631.28;1692920;84;21001;-70
2022/03/24 08:06:28;;;;;;;82.67;42.67;;;;;;;6.73;50.47;99634.55;1693312;84;21042;-69
2022/03/24 08:08:56;;;;;;;70.78;38.33;;;;;;;6.75;50.70;99624.12;1695290;84;21576;-71
2022/03/24 08:11:28;;;;;;;78.35;37.33;;;;;;;6.87;50.84;99626.45;1688035;84;21630;-70
2022/03/24 08:13:57;;;;;;;64.32;34.18;;;;;;;7.04;50.67;99616.38;1687400;84;21071;-70
2022/03/24 08:16:26;;;;;;;60.70;32.23;;;;;;;7.19;49.77;99626.87;1690578;84;20986;-68
2022/03/24 08:18:56;;;;;;;54.25;32.60;;;;;;;7.29;49.32;99625.36;1693581;83;21029;-72
2022/03/24 08:21:25;;;;;;;68.70;35.52;;;;;;;7.39;48.79;99623.02;1692447;84;20950;-70
2022/03/24 08:23:52;;;;;;;53.85;28.05;;;;;;;7.47;48.81;99613.88;1693041;84;21137;-71
2022/03/24 08:26:19;;;;;;;52.95;29.52;;;;;;;7.59;47.77;99624.41;1682511;84;21035;-68
2022/03/24 08:28:48;;;;;;;55.12;29.65;;;;;;;7.61;47.52;99619.44;1680307;84;20990;-70
2022/03/24 08:31:17;;;;;;;58.20;31.93;;;;;;;7.70;48.31;99620.37;1693947;84;21546;-71
2022/03/24 08:33:47;;;;;;;61.40;31.93;;;;;;;7.84;48.58;99622.36;1693116;84;21067;-70
2022/03/24 08:36:13;;;;;;;51.80;28.05;;;;;;;7.97;47.80;99611.98;1696844;84;21136;-71
2022/03/24 08:38:40;;;;;;;43.35;25.57;;;;;;;8.02;47.59;99622.06;1686829;84;21234;-72
2022/03/24 08:41:09;;;;;;;45.40;25.68;;;;;;;8.03;46.93;99614.90;1682977;83;21094;-72
2022/03/24 08:43:39;;;;;;;51.42;26.68;;;;;;;8.10;46.74;99620.58;1687916;84;20974;-70
2022/03/24 08:46:09;;;;;;;46.08;27.15;;;;;;;8.00;46.92;99620.20;1695533;84;20875;-71
2022/03/24 08:48:36;;;;;;;35.92;20.17;;;;;;;7.99;47.58;99615.80;1682929;84;21223;-70
2022/03/24 08:51:03;;;;;;;41.80;22.90;;;;;;;8.19;47.32;99625.61;1679580;84;21000;-72
2022/03/24 08:53:31;;;;;;;35.13;18.90;;;;;;;8.42;46.72;99616.71;1696160;84;21418;-74
2022/03/24 08:55:58;;;;;;;32.67;16.45;;;;;;;8.57;46.41;99618.38;1691666;84;21511;-68
2022/03/24 08:58:28;;;;;;;31.55;18.27;;;;;;;8.71;45.87;99619.22;1692510;84;21493;-71
2022/03/24 09:00:55;;;;;;;28.45;16.25;;;;;;;8.72;44.90;99610.39;1692957;83;21306;-70
2022/03/24 09:03:22;;;;;;;27.35;15.58;;;;;;;8.69;45.26;99608.27;1695645;84;21117;-70
2022/03/24 09:05:50;;;;;;;27.13;15.58;;;;;;;8.73;44.94;99618.36;1690887;84;20966;-68
2022/03/24 09:08:17;;;;;;;29.92;15.58;;;;;;;8.71;44.34;99612.90;1694195;83;21009;-69
2022/03/24 09:10:50;;;;;;;28.35;15.40;;;;;;;8.68;43.99;99612.14;1688197;83;21015;-70
2022/03/24 09:13:17;;;;;;;32.73;18.70;;;;;;;8.69;44.93;99608.27;1690376;84;21619;-71
2022/03/24 09:15:45;;;;;;;26.12;15.28;;;;;;;8.82;44.88;99611.56;1688901;84;20932;-72
2022/03/24 09:18:13;;;;;;;26.77;13.43;;;;;;;8.91;43.86;99604.80;1691880;84;21483;-73
2022/03/24 09:20:42;;;;;;;25.57;14.28;;;;;;;9.02;42.58;99601.28;1690412;84;20938;-73
2022/03/24 09:23:11;;;;;;;29.57;14.30;;;;;;;9.16;42.13;99603.20;1692957;84;20978;-69
2022/03/24 09:25:42;;;;;;;24.37;12.88;;;;;;;9.25;41.43;99613.15;1683530;84;21009;-71
2022/03/24 09:28:10;;;;;;;26.15;13.15;;;;;;;9.07;41.86;99611.34;1694592;84;21057;-71
2022/03/24 09:30:41;;;;;;;30.35;15.65;;;;;;;8.96;41.75;99612.11;1706234;83;21031;-69
2022/03/24 09:33:08;;;;;;;27.67;15.38;;;;;;;8.88;41.48;99615.03;1710664;83;21549;-73
2022/03/24 09:35:37;;;;;;;28.05;13.95;;;;;;;8.71;41.82;99612.34;1708046;83;21016;-71
2022/03/24 09:38:05;;;;;;;30.75;14.93;;;;;;;8.72;42.54;99601.60;1712367;83;21192;-72
2022/03/24 09:40:36;;;;;;;43.65;17.87;;;;;;;8.86;42.71;99611.77;1696668;83;21136;-71
2022/03/24 09:43:04;;;;;;;36.77;18.05;;;;;;;8.94;41.45;99604.17;1710377;83;21568;-70
2022/03/24 09:45:32;;;;;;;36.48;19.37;;;;;;;8.88;42.04;99601.30;1707923;83;21135;-70
2022/03/24 09:48:02;;;;;;;31.95;16.67;;;;;;;9.03;42.14;99598.78;1706558;83;20981;-71
2022/03/24 09:50:37;;;;;;;36.80;21.68;;;;;;;9.11;41.82;99602.75;1709946;83;20886;-74
2022/03/24 09:53:05;;;;;;;60.25;28.32;;;;;;;9.03;41.73;99602.91;1696353;83;20939;-70
2022/03/24 09:55:36;;;;;;;49.48;25.20;;;;;;;9.09;41.72;99600.87;1682826;84;21134;-71
2022/03/24 09:58:04;;;;;;;78.12;38.83;;;;;;;9.06;41.65;99602.28;1682621;84;21555;-70
2022/03/24 10:00:35;;;;;;;85.38;37.80;;;;;;;9.08;41.96;99604.72;1695209;84;21057;-73
2022/03/24 10:03:09;;;;;;;38.42;21.90;;;;;;;9.32;42.31;99603.10;1689952;84;21149;-72
2022/03/24 10:05:58;;;;;;;41.33;19.80;;;;;;;9.55;39.80;99606.45;1644766;86;23766;-73
2022/03/24 10:08:27;;;;;;;32.95;16.67;;;;;;;9.52;40.68;99602.95;1667574;85;21055;-69
2022/03/24 10:11:06;;;;;;;29.77;17.30;;;;;;;9.52;40.42;99609.25;1667753;84;21577;-70
2022/03/24 10:13:46;;;;;;;33.58;16.27;;;;;;;9.47;40.42;99607.44;1661104;84;20969;-70
2022/03/24 10:16:40;;;;;;;34.88;18.70;;;;;;;9.42;39.73;99616.35;1656037;85;21477;-70
2022/03/24 10:19:18;;;;;;;30.35;17.35;;;;;;;9.33;40.65;99610.22;1661962;85;20980;-72
2022/03/24 10:21:49;;;;;;;35.38;18.30;;;;;;;9.53;41.14;99610.89;1675071;85;21569;-72
2022/03/24 10:24:21;;;;;;;30.82;18.32;;;;;;;9.64;40.91;99619.70;1668658;84;21505;-70
2022/03/24 10:27:03;;;;;;;34.18;17.62;;;;;;;9.73;40.02;99622.52;1663274;84;21016;-71
2022/03/24 10:29:31;;;;;;;35.35;19.15;;;;;;;9.73;39.96;99621.97;1672512;85;21102;-72
2022/03/24 10:32:01;;;;;;;35.40;18.48;;;;;;;9.74;40.70;99616.70;1670457;84;21034;-73
2022/03/24 10:34:35;;;;;;;31.23;16.42;;;;;;;9.82;40.61;99619.84;1653312;85;21529;-72
2022/03/24 10:37:12;;;;;;;29.55;19.45;;;;;;;9.83;40.05;99615.95;1672879;85;21048;-72
2022/03/24 10:40:05;;;;;;;29.32;16.25;;;;;;;9.82;39.57;99626.73;1670909;84;20989;-71
2022/03/24 10:42:33;;;;;;;28.00;16.48;;;;;;;9.81;39.51;99613.52;1706058;83;20912;-71
2022/03/24 10:45:20;;;;;;;24.67;13.62;;;;;;;9.69;38.10;99617.41;1708905;83;21022;-71
2022/03/24 10:47:56;;;;;;;23.62;13.53;;;;;;;9.46;38.72;99613.25;1697163;83;21551;-73
2022/03/24 10:50:38;;;;;;;22.98;13.58;;;;;;;9.54;39.29;99613.06;1693810;84;21081;-73
2022/03/24 10:53:15;;;;;;;25.82;14.18;;;;;;;9.58;38.95;99618.20;1693153;84;21426;-68
2022/03/24 10:55:58;;;;;;;26.12;13.93;;;;;;;9.45;38.69;99605.55;1696387;83;21494;-69
2022/03/24 10:58:39;;;;;;;32.48;13.75;;;;;;;9.23;38.57;99617.31;1689615;83;21089;-72
2022/03/24 11:01:08;;;;;;;20.88;10.93;;;;;;;9.06;39.71;99619.36;1682933;84;21012;-71
2022/03/24 11:03:36;;;;;;;24.65;11.90;;;;;;;9.16;39.37;99619.11;1687499;84;20980;-71
2022/03/24 11:06:22;;;;;;;20.92;12.45;;;;;;;9.37;39.33;99616.73;1694510;84;21009;-70
2022/03/24 11:08:59;;;;;;;26.48;14.95;;;;;;;9.46;39.27;99612.70;1695354;83;21185;-72
2022/03/24 11:11:28;;;;;;;24.32;12.63;;;;;;;9.39;38.28;99619.17;1688441;83;21021;-70
2022/03/24 11:14:03;;;;;;;19.65;9.35;;;;;;;9.03;38.66;99629.02;1682150;84;21560;-70
2022/03/24 11:16:32;;;;;;;13.95;8.65;;;;;;;8.74;38.79;99626.84;1691612;84;20957;-70
2022/03/24 11:19:01;;;;;;;21.02;11.80;;;;;;;8.68;38.39;99627.25;1693925;83;21422;-71
2022/03/24 11:21:36;;;;;;;19.90;10.68;;;;;;;8.72;38.92;99625.50;1687240;84;20929;-73
2022/03/24 11:24:06;;;;;;;24.20;12.43;;;;;;;8.82;39.85;99624.52;1693448;84;21535;-70
2022/03/24 11:26:35;;;;;;;24.18;12.78;;;;;;;9.06;40.09;99621.52;1687499;84;21087;-70
2022/03/24 11:29:03;;;;;;;31.20;14.20;;;;;;;9.34;39.90;99617.36;1685546;84;20985;-70
2022/03/24 11:31:33;;;;;;;24.75;12.68;;;;;;;9.65;39.31;99613.64;1703257;83;21449;-73
2022/03/24 11:34:03;;;;;;;31.60;16.93;;;;;;;9.72;38.55;99619.53;1696670;83;21108;-72